Time;durP1;ratioP1;P1;durP2;ratioP2;P2;SDS_P1;SDS_P2;PMS_P1;PMS_P2;Temp;Humidity;BMP_temperature;BMP_pressure;BME280_temperature;BME280_humidity;BME280_pressure;Samples;Min_cycle;Max_cycle;Signal;HPM_P1;HPM_P2
2023/08/12 00:01:03;;;;;;;5.88;1.83;;;;;;;18.75;57.14;100014.28;5028200;28;20045;-61
2023/08/12 00:03:30;;;;;;;6.35;1.15;;;;;;;18.69;56.85;100009.28;5023346;28;20522;-61
2023/08/12 00:06:00;;;;;;;7.57;1.13;;;;;;;18.66;56.78;100008.53;5026341;28;20553;-61
2023/08/12 00:08:27;;;;;;;7.18;1.40;;;;;;;18.61;57.11;100008.72;5027339;28;20053;-60
2023/08/12 00:10:53;;;;;;;10.30;1.48;;;;;;;18.56;56.82;100003.63;5024319;28;20457;-61
2023/08/12 00:13:20;;;;;;;10.13;1.35;;;;;;;18.52;57.27;100003.78;5025318;28;20057;-61
2023/08/12 00:15:47;;;;;;;6.43;1.55;;;;;;;18.47;57.61;99999.56;5026277;28;20050;-60
2023/08/12 00:18:14;;;;;;;4.75;0.93;;;;;;;18.43;57.57;100003.22;5027111;28;20477;-61
2023/08/12 00:20:42;;;;;;;10.20;1.40;;;;;;;18.40;58.13;100002.50;5020916;28;20053;-60
2023/08/12 00:23:09;;;;;;;6.57;1.10;;;;;;;18.37;57.75;100008.69;5007358;28;20046;-60
2023/08/12 00:25:37;;;;;;;9.23;1.80;;;;;;;18.34;58.21;100000.94;5000967;28;20038;-60
2023/08/12 00:28:06;;;;;;;10.10;1.27;;;;;;;18.30;58.02;99999.34;5005863;28;20046;-60
2023/08/12 00:30:35;;;;;;;7.22;1.40;;;;;;;18.27;58.47;100002.06;5006333;28;20056;-61
2023/08/12 00:33:04;;;;;;;6.20;1.58;;;;;;;18.22;58.05;100005.72;5003983;28;20053;-59
2023/08/12 00:35:33;;;;;;;7.97;1.23;;;;;;;18.21;58.55;100003.97;5003416;28;20050;-61
2023/08/12 00:38:04;;;;;;;5.55;1.30;;;;;;;18.16;57.66;100000.69;5007043;28;20046;-60
2023/08/12 00:40:33;;;;;;;7.05;1.70;;;;;;;18.11;57.66;99992.13;5020659;28;20095;-60
2023/08/12 00:43:01;;;;;;;5.07;1.50;;;;;;;18.07;58.42;99991.34;5005403;28;20057;-60
2023/08/12 00:45:36;;;;;;;10.30;1.77;;;;;;;18.02;57.99;99987.16;5006126;28;20038;-60
2023/08/12 00:48:06;;;;;;;6.55;1.23;;;;;;;17.97;58.29;99985.56;5006362;28;20557;-60
2023/08/12 00:50:37;;;;;;;6.43;0.82;;;;;;;17.95;59.16;99976.03;5006024;28;20108;-60
2023/08/12 00:53:07;;;;;;;8.77;1.58;;;;;;;17.91;58.31;99972.69;5002889;28;20132;-60
2023/08/12 00:55:36;;;;;;;8.32;1.30;;;;;;;17.86;58.38;99978.06;5021620;28;20457;-60
2023/08/12 00:58:05;;;;;;;7.13;1.55;;;;;;;17.83;58.38;99977.31;5016495;28;20076;-60
2023/08/12 01:00:34;;;;;;;11.45;1.65;;;;;;;17.79;59.39;99970.47;5002056;28;20065;-60
2023/08/12 01:03:02;;;;;;;7.68;1.52;;;;;;;17.76;59.21;99970.59;5002444;28;20116;-60
2023/08/12 01:05:30;;;;;;;9.95;1.65;;;;;;;17.73;59.31;99967.16;5003670;28;20133;-60
2023/08/12 01:07:56;;;;;;;7.65;1.65;;;;;;;17.69;59.36;99970.78;4999154;28;20111;-60
2023/08/12 01:10:30;;;;;;;7.30;1.40;;;;;;;17.68;59.14;99971.72;5023547;28;20053;-60
2023/08/12 01:15:44;;;;;;;7.95;1.48;;;;;;;17.63;58.61;99955.28;5063033;27;20409;-61
2023/08/12 01:18:12;;;;;;;12.20;2.03;;;;;;;17.60;59.36;99952.78;5054386;28;20045;-61
2023/08/12 01:20:39;;;;;;;8.98;1.50;;;;;;;17.56;59.04;99949.41;5062097;28;20102;-60
2023/08/12 01:23:10;;;;;;;5.35;1.80;;;;;;;17.53;59.76;99946.03;5063370;28;20055;-61
2023/08/12 01:25:36;;;;;;;8.50;1.42;;;;;;;17.50;59.64;99959.22;5062619;28;20049;-60
2023/08/12 01:28:03;;;;;;;4.40;1.23;;;;;;;17.46;59.53;99958.44;5062037;28;20049;-61
2023/08/12 01:30:31;;;;;;;6.85;1.23;;;;;;;17.43;60.15;99948.94;5061460;28;20419;-61
2023/08/12 01:35:54;;;;;;;10.85;2.83;;;;;;;17.36;60.31;99949.22;5052520;28;20405;-60
2023/08/12 01:38:31;;;;;;;8.75;2.85;;;;;;;17.30;60.18;99950.25;5022844;28;20057;-61
2023/08/12 01:40:59;;;;;;;9.02;2.85;;;;;;;17.29;60.24;99940.72;5021914;28;20057;-60
2023/08/12 01:43:26;;;;;;;8.38;2.47;;;;;;;17.26;60.83;99946.03;5022619;28;20517;-61
2023/08/12 01:45:53;;;;;;;8.52;2.53;;;;;;;17.23;60.90;99947.00;5023184;28;20046;-61
2023/08/12 01:48:22;;;;;;;9.65;2.90;;;;;;;17.21;60.31;99943.56;5018934;28;20458;-60
2023/08/12 01:50:49;;;;;;;10.82;2.65;;;;;;;17.17;60.46;99945.44;5022051;28;20049;-61
2023/08/12 01:53:16;;;;;;;8.05;2.25;;;;;;;17.14;61.17;99942.91;5023467;28;20057;-61
2023/08/12 01:55:44;;;;;;;10.77;2.72;;;;;;;17.11;60.79;99934.28;5021839;28;20045;-60
2023/08/12 01:58:11;;;;;;;9.27;2.38;;;;;;;17.06;61.44;99939.69;5022785;28;20060;-61
2023/08/12 02:00:38;;;;;;;11.65;3.00;;;;;;;17.04;60.96;99931.84;5017148;28;20060;-61
2023/08/12 02:03:04;;;;;;;10.40;2.25;;;;;;;17.01;61.18;99931.06;5022163;28;20499;-61
2023/08/12 02:05:31;;;;;;;8.02;2.42;;;;;;;16.98;61.93;99936.41;5020718;28;20045;-61
2023/08/12 02:07:58;;;;;;;7.30;2.90;;;;;;;16.96;62.06;99929.44;5022261;28;20057;-61
2023/08/12 02:10:25;;;;;;;9.88;2.70;;;;;;;16.93;62.74;99919.06;5017566;28;20046;-61
2023/08/12 02:12:51;;;;;;;6.60;2.55;;;;;;;16.90;63.22;99924.44;5022002;28;20495;-61
2023/08/12 02:15:18;;;;;;;7.63;2.63;;;;;;;16.88;63.30;99914.94;5032265;28;20060;-61
2023/08/12 02:17:45;;;;;;;8.35;2.40;;;;;;;16.84;63.08;99919.38;5042933;28;20057;-60
2023/08/12 02:20:11;;;;;;;11.00;3.08;;;;;;;16.80;63.76;99917.75;5042948;28;20041;-60
2023/08/12 02:22:38;;;;;;;7.88;2.50;;;;;;;16.78;63.34;99915.19;5039726;28;20650;-61
2023/08/12 02:25:05;;;;;;;9.43;2.25;;;;;;;16.78;64.08;99919.56;5037303;28;20124;-61
2023/08/12 02:27:32;;;;;;;4.50;2.47;;;;;;;16.75;64.01;99914.44;5026420;28;20494;-61
2023/08/12 02:29:58;;;;;;;9.35;2.75;;;;;;;16.75;64.90;99914.44;5020843;28;20050;-60
2023/08/12 02:32:25;;;;;;;6.93;2.97;;;;;;;16.74;64.35;99912.72;5018794;28;20041;-60
2023/08/12 02:34:52;;;;;;;6.80;2.90;;;;;;;16.72;64.42;99906.69;5015685;28;20046;-60
2023/08/12 02:37:18;;;;;;;4.53;2.85;;;;;;;16.69;64.53;99905.88;5013018;28;20053;-60
2023/08/12 02:39:45;;;;;;;11.32;3.80;;;;;;;16.69;64.88;99899.78;5017399;28;20057;-60
2023/08/12 02:42:11;;;;;;;13.18;3.50;;;;;;;16.67;65.34;99894.59;5018124;28;20111;-60
2023/08/12 02:44:38;;;;;;;11.43;3.85;;;;;;;16.66;65.03;99898.13;5014311;28;20042;-60
2023/08/12 02:47:05;;;;;;;8.13;2.55;;;;;;;16.64;65.18;99899.06;5003730;28;20045;-61
2023/08/12 02:49:31;;;;;;;7.53;2.63;;;;;;;16.61;65.74;99897.41;5003762;28;20545;-60
2023/08/12 02:51:58;;;;;;;9.52;3.47;;;;;;;16.58;65.38;99900.09;5004353;28;20045;-60
2023/08/12 02:54:25;;;;;;;8.23;3.40;;;;;;;16.57;65.15;99903.63;5007062;28;20783;-61
2023/08/12 02:56:51;;;;;;;10.85;3.92;;;;;;;16.56;64.92;99905.38;4999579;28;20046;-60
2023/08/12 02:59:18;;;;;;;8.43;3.42;;;;;;;16.56;65.29;99904.53;5006182;28;20048;-61
2023/08/12 03:01:44;;;;;;;9.75;2.80;;;;;;;16.54;65.51;99906.31;5007055;28;20045;-61
2023/08/12 03:04:11;;;;;;;8.98;2.88;;;;;;;16.51;65.29;99895.97;5005199;28;20042;-60
2023/08/12 03:06:38;;;;;;;8.65;2.40;;;;;;;16.48;65.54;99896.91;5007721;28;20054;-60
2023/08/12 03:09:04;;;;;;;8.23;3.35;;;;;;;16.48;65.25;99891.69;4997467;28;20042;-61
2023/08/12 03:11:31;;;;;;;6.68;2.42;;;;;;;16.45;65.95;99895.25;5002510;28;20042;-59
2023/08/12 03:13:58;;;;;;;9.20;2.67;;;;;;;16.43;65.27;99894.44;5005233;28;20054;-61
2023/08/12 03:16:24;;;;;;;6.60;3.08;;;;;;;16.39;66.15;99887.59;4996185;28;20042;-61
2023/08/12 03:18:51;;;;;;;11.02;3.30;;;;;;;16.38;66.03;99880.63;4999175;28;20045;-60
2023/08/12 03:21:17;;;;;;;7.85;3.35;;;;;;;16.32;66.58;99881.69;5004194;28;20063;-60
2023/08/12 03:23:44;;;;;;;7.63;3.13;;;;;;;16.29;66.39;99884.41;5006459;28;20058;-61
2023/08/12 03:26:11;;;;;;;8.27;3.88;;;;;;;16.26;66.00;99870.56;5002091;28;20046;-61
2023/08/12 03:28:38;;;;;;;6.97;2.65;;;;;;;16.23;66.07;99871.50;5002706;28;20050;-61
2023/08/12 03:31:04;;;;;;;8.90;2.55;;;;;;;16.17;66.74;99869.94;5005994;28;20046;-61
2023/08/12 03:33:32;;;;;;;5.22;2.20;;;;;;;16.14;66.91;99877.84;5003985;28;20046;-60
2023/08/12 03:35:59;;;;;;;8.50;2.65;;;;;;;16.10;66.94;99871.00;5001174;28;20049;-61
2023/08/12 03:38:25;;;;;;;6.63;2.30;;;;;;;16.07;66.47;99865.84;4999969;28;20100;-60
2023/08/12 03:40:52;;;;;;;6.78;2.53;;;;;;;16.06;66.62;99869.38;5002166;28;20658;-60
2023/08/12 03:43:18;;;;;;;8.93;2.85;;;;;;;16.03;67.19;99864.25;5004400;28;20042;-61
2023/08/12 03:45:45;;;;;;;13.13;2.88;;;;;;;16.00;67.09;99859.09;5003075;28;20045;-60
2023/08/12 03:48:12;;;;;;;7.70;3.13;;;;;;;15.98;67.02;99860.91;5005357;28;20683;-61
2023/08/12 03:50:39;;;;;;;8.70;3.30;;;;;;;15.94;66.94;99860.97;5001265;28;20518;-59
2023/08/12 03:53:06;;;;;;;7.47;2.60;;;;;;;15.93;67.40;99863.59;4998537;28;20058;-61
2023/08/12 03:55:33;;;;;;;11.18;3.00;;;;;;;15.90;67.31;99859.34;5002576;28;20060;-60
2023/08/12 03:58:00;;;;;;;5.00;2.78;;;;;;;15.87;67.14;99869.84;5001496;28;20046;-60
2023/08/12 04:00:27;;;;;;;5.75;2.65;;;;;;;15.86;67.26;99870.75;4999308;28;20050;-61
2023/08/12 04:02:54;;;;;;;7.03;2.97;;;;;;;15.85;67.25;99868.19;5001711;28;20177;-60
2023/08/12 04:05:21;;;;;;;8.30;2.70;;;;;;;15.83;67.77;99863.00;5006074;28;20042;-60
2023/08/12 04:07:47;;;;;;;6.78;3.28;;;;;;;15.80;67.71;99857.88;5005747;28;20046;-60
2023/08/12 04:10:14;;;;;;;12.07;3.20;;;;;;;15.77;67.88;99855.38;5006166;28;20045;-61
2023/08/12 04:12:41;;;;;;;7.70;3.13;;;;;;;15.76;67.89;99858.84;5002599;28;20060;-61
2023/08/12 04:15:09;;;;;;;9.93;2.20;;;;;;;15.72;67.74;99860.69;5014392;28;20060;-60
2023/08/12 04:17:35;;;;;;;7.25;3.25;;;;;;;15.73;67.81;99851.09;5019698;28;20052;-60
2023/08/12 04:20:05;;;;;;;10.90;3.05;;;;;;;15.71;67.95;99845.06;5024369;28;20056;-59
2023/08/12 04:22:32;;;;;;;7.55;2.78;;;;;;;15.70;67.88;99851.19;5022275;28;20111;-58
2023/08/12 04:24:59;;;;;;;8.85;2.92;;;;;;;15.67;68.03;99847.75;5024901;28;20049;-59
2023/08/12 04:27:25;;;;;;;5.38;3.13;;;;;;;15.66;67.90;99853.88;5022385;28;20053;-60
2023/08/12 04:29:52;;;;;;;9.23;2.67;;;;;;;15.63;68.04;99851.34;5025039;28;20049;-60
2023/08/12 04:32:18;;;;;;;10.82;2.65;;;;;;;15.61;67.89;99836.63;5016648;28;20081;-59
2023/08/12 04:34:46;;;;;;;10.30;3.38;;;;;;;15.58;67.95;99845.41;5024190;28;20061;-60
2023/08/12 04:37:12;;;;;;;7.22;2.85;;;;;;;15.55;67.99;99848.09;5019075;28;20546;-59
2023/08/12 04:39:40;;;;;;;15.93;3.17;;;;;;;15.55;68.46;99842.88;5024679;28;20049;-60
2023/08/12 04:42:06;;;;;;;7.75;2.67;;;;;;;15.53;68.13;99831.59;5022266;28;20048;-60
2023/08/12 04:44:33;;;;;;;8.27;2.67;;;;;;;15.52;68.36;99832.50;5023435;28;20124;-59
2023/08/12 04:47:00;;;;;;;10.43;2.90;;;;;;;15.49;68.36;99822.16;5018794;28;20470;-60
2023/08/12 04:49:27;;;;;;;11.70;2.88;;;;;;;15.47;68.37;99829.19;5021118;28;20056;-60
2023/08/12 04:51:53;;;;;;;11.60;3.05;;;;;;;15.45;68.53;99820.53;5021077;28;20056;-60
2023/08/12 04:54:20;;;;;;;6.55;2.38;;;;;;;15.44;68.37;99816.22;5021993;28;20486;-60
2023/08/12 04:56:47;;;;;;;13.18;2.63;;;;;;;15.42;68.85;99814.50;5017114;28;20049;-60
2023/08/12 04:59:13;;;;;;;7.80;1.75;;;;;;;15.42;68.43;99818.84;5022933;28;20398;-60
2023/08/12 05:01:40;;;;;;;9.65;3.10;;;;;;;15.42;68.39;99826.69;5024809;28;20047;-59
2023/08/12 05:04:27;;;;;;;11.98;3.05;;;;;;;15.40;68.85;99818.91;5015752;28;20034;-60
2023/08/12 05:06:53;;;;;;;9.88;2.88;;;;;;;15.40;68.79;99813.69;5014188;28;20053;-60
2023/08/12 05:09:20;;;;;;;7.15;3.58;;;;;;;15.40;69.11;99818.91;5016147;28;20064;-60
2023/08/12 05:11:47;;;;;;;9.65;2.95;;;;;;;15.40;68.71;99808.47;5026238;28;20045;-59
2023/08/12 05:14:13;;;;;;;11.90;3.13;;;;;;;15.41;69.05;99812.78;5026156;28;20057;-59
2023/08/12 05:16:40;;;;;;;10.18;2.78;;;;;;;15.41;69.35;99804.94;5024323;28;20045;-60
2023/08/12 05:19:07;;;;;;;11.10;2.80;;;;;;;15.42;69.58;99800.59;5024025;28;20076;-59
2023/08/12 05:21:33;;;;;;;10.63;4.25;;;;;;;15.42;69.33;99800.59;5024498;28;20053;-61
2023/08/12 05:24:00;;;;;;;13.93;3.70;;;;;;;15.45;69.55;99802.25;5026489;28;20048;-59
2023/08/12 05:26:27;;;;;;;15.02;2.90;;;;;;;15.49;69.51;99801.28;5024287;28;20037;-59
2023/08/12 05:28:53;;;;;;;8.70;3.03;;;;;;;15.53;69.41;99797.69;5027112;28;20056;-60
2023/08/12 05:31:20;;;;;;;13.25;2.67;;;;;;;15.55;69.75;99806.34;5026251;28;20056;-59
2023/08/12 05:33:47;;;;;;;8.25;3.35;;;;;;;15.58;69.99;99806.25;5025823;28;20088;-59
2023/08/12 05:36:13;;;;;;;12.30;2.33;;;;;;;15.64;69.82;99805.22;5025152;28;20206;-60
2023/08/12 05:38:40;;;;;;;11.02;3.67;;;;;;;15.72;69.92;99802.41;5021427;28;20053;-61
2023/08/12 05:41:08;;;;;;;11.23;3.50;;;;;;;15.82;70.53;99803.84;5022846;28;20049;-60
2023/08/12 05:43:34;;;;;;;12.27;3.05;;;;;;;15.92;70.45;99810.53;5006581;28;20240;-59
2023/08/12 05:46:01;;;;;;;11.18;3.38;;;;;;;16.05;70.01;99804.97;5003704;28;20042;-59
2023/08/12 05:48:28;;;;;;;9.65;2.10;;;;;;;16.16;69.85;99808.13;5005534;28;20556;-59
2023/08/12 05:50:55;;;;;;;8.68;2.70;;;;;;;16.28;69.12;99811.28;5007656;28;20041;-60
2023/08/12 05:53:22;;;;;;;15.10;4.32;;;;;;;16.38;69.78;99802.22;5020802;28;20045;-57
2023/08/12 05:55:49;;;;;;;15.05;6.05;;;;;;;16.48;69.32;99809.81;5023423;28;20053;-59
2023/08/12 05:58:15;;;;;;;10.38;3.10;;;;;;;16.51;69.17;99817.56;5023507;28;20046;-59
2023/08/12 06:00:45;;;;;;;15.20;4.30;;;;;;;16.49;69.21;99803.66;5025584;28;20133;-60
2023/08/12 06:03:12;;;;;;;13.80;3.80;;;;;;;16.52;69.17;99806.19;5023137;28;20049;-60
2023/08/12 06:05:41;;;;;;;12.73;4.65;;;;;;;16.55;68.95;99813.94;5025720;28;20049;-59
2023/08/12 06:08:07;;;;;;;11.68;3.78;;;;;;;16.60;69.41;99812.03;5025387;28;20041;-59
2023/08/12 06:10:34;;;;;;;12.68;3.67;;;;;;;16.65;69.44;99815.34;4999017;28;20082;-60
2023/08/12 06:13:05;;;;;;;10.32;2.95;;;;;;;16.72;69.63;99815.16;4997083;28;20042;-60
2023/08/12 06:15:33;;;;;;;11.43;3.35;;;;;;;16.77;69.05;99810.63;5001037;28;20049;-59
2023/08/12 06:18:00;;;;;;;12.38;3.40;;;;;;;16.82;69.35;99817.41;4997314;28;20129;-59
2023/08/12 06:20:27;;;;;;;9.52;2.85;;;;;;;16.89;68.92;99818.06;5005086;28;20064;-59
2023/08/12 06:22:54;;;;;;;8.32;3.08;;;;;;;16.98;68.54;99821.31;5007624;28;20049;-60
2023/08/12 06:25:21;;;;;;;12.35;2.95;;;;;;;17.03;68.94;99801.06;5002628;28;20153;-60
2023/08/12 06:27:48;;;;;;;8.60;3.33;;;;;;;17.11;69.46;99800.84;5006707;28;20054;-60
2023/08/12 06:30:14;;;;;;;13.70;3.88;;;;;;;17.16;69.55;99805.00;5001934;28;20054;-60
2023/08/12 06:32:41;;;;;;;10.05;3.10;;;;;;;17.23;69.34;99799.56;4994570;28;20055;-59
2023/08/12 06:35:08;;;;;;;11.48;2.90;;;;;;;17.27;69.48;99806.41;4998775;28;20151;-61
2023/08/12 06:37:35;;;;;;;8.23;2.67;;;;;;;17.32;69.32;99809.72;5006329;28;20050;-62
2023/08/12 06:40:03;;;;;;;7.85;3.33;;;;;;;17.52;68.83;99805.53;5005216;28;20041;-60
2023/08/12 06:42:30;;;;;;;11.70;3.55;;;;;;;17.83;68.97;99810.53;5006439;28;20137;-59
2023/08/12 06:44:59;;;;;;;14.93;2.70;;;;;;;18.17;68.92;99813.66;5001881;28;20049;-59
2023/08/12 06:47:27;;;;;;;13.25;3.05;;;;;;;18.53;67.89;99806.19;5005782;28;20054;-58
2023/08/12 06:49:54;;;;;;;8.23;2.50;;;;;;;18.71;67.24;99802.00;5008507;28;20046;-59
2023/08/12 06:52:22;;;;;;;7.45;2.58;;;;;;;18.88;66.64;99810.00;5004969;28;20058;-59
2023/08/12 06:54:49;;;;;;;11.32;3.70;;;;;;;19.14;66.50;99805.47;5005423;28;20074;-59
2023/08/12 06:57:15;;;;;;;10.35;2.65;;;;;;;19.40;65.81;99810.53;5000967;28;20045;-60
2023/08/12 06:59:42;;;;;;;8.63;2.75;;;;;;;19.65;64.92;99815.56;5001330;28;20042;-60
2023/08/12 07:02:09;;;;;;;13.10;2.78;;;;;;;19.92;64.69;99806.47;4998168;28;20046;-59
2023/08/12 07:04:36;;;;;;;9.15;2.22;;;;;;;20.20;64.32;99800.00;5006881;28;20376;-59
2023/08/12 07:07:02;;;;;;;8.40;2.63;;;;;;;20.43;63.72;99811.19;5007721;28;20049;-60
2023/08/12 07:09:29;;;;;;;12.40;3.75;;;;;;;20.65;62.80;99811.03;5003648;28;20058;-60
2023/08/12 07:11:56;;;;;;;13.75;2.88;;;;;;;20.87;62.97;99804.69;5005878;28;20050;-60
2023/08/12 07:14:22;;;;;;;14.50;3.63;;;;;;;21.04;61.75;99806.50;4994836;28;20097;-60
2023/08/12 07:16:49;;;;;;;11.52;2.65;;;;;;;21.27;61.82;99807.09;5002528;28;20050;-60
2023/08/12 07:19:16;;;;;;;10.57;2.83;;;;;;;21.55;61.62;99810.94;4998091;28;20046;-60
2023/08/12 07:21:43;;;;;;;8.43;2.58;;;;;;;21.85;61.28;99805.94;5002318;28;20128;-59
2023/08/12 07:24:09;;;;;;;11.07;2.85;;;;;;;22.14;60.78;99811.41;5002274;28;20049;-60
2023/08/12 07:26:36;;;;;;;8.45;2.72;;;;;;;22.31;58.84;99813.09;5006012;28;20050;-60
2023/08/12 07:29:03;;;;;;;7.72;2.65;;;;;;;22.53;59.22;99810.09;5004274;28;20046;-60
2023/08/12 07:31:29;;;;;;;8.45;2.75;;;;;;;22.71;58.52;99810.03;5004551;28;20060;-60
2023/08/12 07:33:56;;;;;;;13.10;3.45;;;;;;;22.94;58.42;99815.75;5006932;28;20060;-59
2023/08/12 07:36:23;;;;;;;11.70;2.63;;;;;;;23.20;57.16;99808.09;5005158;28;20396;-59
2023/08/12 07:38:49;;;;;;;9.63;2.65;;;;;;;23.30;57.15;99805.75;5004483;28;20798;-60
2023/08/12 07:41:16;;;;;;;6.45;3.00;;;;;;;23.48;56.08;99809.94;5007168;28;20045;-60
2023/08/12 07:43:43;;;;;;;7.20;3.28;;;;;;;23.74;56.06;99796.03;5006416;28;20049;-60
2023/08/12 07:46:09;;;;;;;11.30;2.88;;;;;;;23.94;55.50;99800.09;5003050;28;20046;-60
2023/08/12 07:48:37;;;;;;;8.55;2.80;;;;;;;24.02;54.75;99791.69;5000660;28;20079;-59
2023/08/12 07:51:04;;;;;;;10.18;2.33;;;;;;;23.99;55.08;99798.03;5001495;28;20046;-60
2023/08/12 07:53:31;;;;;;;9.13;2.08;;;;;;;23.76;55.01;99791.53;4997056;28;20051;-61
2023/08/12 07:55:58;;;;;;;6.28;2.00;;;;;;;23.38;54.17;99797.38;4998691;28;20049;-60
2023/08/12 07:58:25;;;;;;;9.32;2.53;;;;;;;23.03;55.24;99799.34;5001086;28;20080;-61
2023/08/12 08:00:53;;;;;;;11.13;3.00;;;;;;;22.75;55.75;99798.34;5003042;28;20042;-61
2023/08/12 08:03:20;;;;;;;12.45;3.22;;;;;;;22.56;55.66;99796.75;5003758;28;20041;-61
2023/08/12 08:05:48;;;;;;;8.32;2.63;;;;;;;22.40;56.31;99790.63;5002800;28;20124;-57
2023/08/12 08:08:15;;;;;;;11.25;3.30;;;;;;;22.20;56.69;99787.31;4999020;28;20108;-59
2023/08/12 08:10:41;;;;;;;11.38;2.83;;;;;;;22.06;57.42;99798.66;5005030;28;20045;-59
2023/08/12 08:13:08;;;;;;;9.10;2.63;;;;;;;21.93;57.12;99799.31;5006421;28;20053;-59
2023/08/12 08:15:34;;;;;;;9.70;2.80;;;;;;;21.78;57.49;99800.97;5007277;28;20052;-59
2023/08/12 08:18:03;;;;;;;12.55;2.42;;;;;;;21.64;57.27;99793.78;5011259;28;20048;-59
2023/08/12 08:20:31;;;;;;;10.45;3.50;;;;;;;21.57;57.97;99793.28;5010860;28;20143;-59
2023/08/12 08:22:58;;;;;;;9.38;3.05;;;;;;;21.62;57.67;99784.28;5023005;28;20141;-59
2023/08/12 08:25:24;;;;;;;8.98;3.13;;;;;;;22.09;59.03;99791.41;5026339;28;20045;-59
2023/08/12 08:27:51;;;;;;;5.18;2.22;;;;;;;22.55;57.61;99787.13;5009233;28;20050;-59
2023/08/12 08:30:18;;;;;;;6.47;2.63;;;;;;;22.77;57.20;99783.28;5002602;28;20141;-59
2023/08/12 08:32:46;;;;;;;8.48;2.58;;;;;;;22.73;56.55;99794.97;5001496;28;20053;-59
2023/08/12 08:35:13;;;;;;;9.63;2.58;;;;;;;22.66;56.27;99796.25;4997671;28;20082;-59
2023/08/12 08:37:40;;;;;;;10.93;2.20;;;;;;;22.53;55.80;99781.06;5002264;28;20061;-59
2023/08/12 08:40:08;;;;;;;10.63;2.40;;;;;;;22.32;56.23;99794.53;5004274;28;20056;-59
2023/08/12 08:42:37;;;;;;;8.23;2.28;;;;;;;22.10;56.34;99797.53;4998124;28;20141;-60
2023/08/12 08:45:09;;;;;;;8.07;2.33;;;;;;;21.93;56.87;99798.47;5000375;28;20056;-59
2023/08/12 08:47:36;;;;;;;11.60;2.42;;;;;;;21.89;56.82;99792.50;5004650;28;20057;-59
2023/08/12 08:50:04;;;;;;;8.27;2.45;;;;;;;21.98;56.71;99796.41;5000706;28;20558;-60
2023/08/12 08:52:32;;;;;;;14.10;2.33;;;;;;;22.03;57.08;99789.13;4998961;28;20045;-60
2023/08/12 08:55:00;;;;;;;9.93;2.88;;;;;;;22.20;57.32;99787.31;5002494;28;20046;-60
2023/08/12 08:57:30;;;;;;;6.30;2.95;;;;;;;22.64;57.66;99792.84;4998674;28;20042;-59
2023/08/12 09:00:14;;;;;;;9.35;2.22;;;;;;;23.03;56.11;99788.78;5001739;28;20048;-59
2023/08/12 09:02:46;;;;;;;11.13;2.45;;;;;;;23.39;55.91;99785.84;4995599;28;20050;-60
2023/08/12 09:05:15;;;;;;;10.85;2.80;;;;;;;23.72;55.44;99784.72;4998488;28;20133;-60
2023/08/12 09:07:44;;;;;;;8.07;2.25;;;;;;;23.96;54.65;99787.63;5005878;28;20078;-59
2023/08/12 09:10:11;;;;;;;6.13;1.80;;;;;;;23.83;53.32;99782.28;5003033;28;20586;-60
2023/08/12 09:12:43;;;;;;;12.05;2.75;;;;;;;23.61;54.38;99788.88;5003431;28;20041;-59
2023/08/12 09:15:10;;;;;;;5.38;2.63;;;;;;;23.36;53.75;99790.41;5000373;28;20100;-60
2023/08/12 09:17:37;;;;;;;8.15;2.22;;;;;;;23.14;53.99;99795.25;4998793;28;20495;-60
2023/08/12 09:20:11;;;;;;;4.82;2.15;;;;;;;23.02;54.84;99792.38;4993867;28;20129;-60
2023/08/12 09:22:41;;;;;;;7.07;2.25;;;;;;;22.90;55.06;99799.22;5000285;28;20057;-60
2023/08/12 09:25:09;;;;;;;10.60;2.75;;;;;;;22.82;54.76;99796.19;4999195;28;20045;-60
2023/08/12 09:27:38;;;;;;;9.10;1.55;;;;;;;22.58;54.38;99786.97;5002262;28;20462;-60
2023/08/12 09:30:06;;;;;;;5.72;2.33;;;;;;;22.50;55.09;99786.53;4999861;28;20042;-60
2023/08/12 09:32:34;;;;;;;7.65;2.80;;;;;;;22.56;56.20;99780.94;5009493;28;20056;-60
2023/08/12 09:35:03;;;;;;;11.00;2.90;;;;;;;22.65;56.45;99778.69;5018280;28;20061;-60
2023/08/12 09:37:29;;;;;;;10.70;2.03;;;;;;;22.85;55.95;99781.03;5024089;28;20049;-59
2023/08/12 09:39:56;;;;;;;10.23;2.55;;;;;;;23.11;56.14;99775.97;5022670;28;20042;-60
2023/08/12 09:42:23;;;;;;;7.10;2.05;;;;;;;23.51;55.80;99766.63;5020743;28;20041;-59
2023/08/12 09:44:50;;;;;;;7.53;2.42;;;;;;;23.71;55.06;99769.81;5020120;28;20056;-60
2023/08/12 09:47:17;;;;;;;9.75;3.10;;;;;;;23.73;54.68;99765.28;5019878;28;20056;-59
2023/08/12 09:49:44;;;;;;;9.65;2.08;;;;;;;23.70;53.31;99768.09;5024647;28;20068;-60
2023/08/12 09:52:12;;;;;;;6.78;2.58;;;;;;;23.94;54.08;99759.59;5018848;28;20041;-59
2023/08/12 09:54:41;;;;;;;9.07;1.70;;;;;;;24.18;53.35;99764.28;5019772;28;20046;-60
2023/08/12 09:57:11;;;;;;;9.85;2.30;;;;;;;24.38;53.07;99761.19;5016243;28;20131;-61
2023/08/12 09:59:41;;;;;;;8.13;2.47;;;;;;;24.60;52.76;99757.13;5013932;28;20069;-59
2023/08/12 10:02:18;;;;;;;5.25;1.90;;;;;;;24.78;52.87;99762.13;5005353;28;20042;-60
2023/08/12 10:04:45;;;;;;;8.65;1.48;;;;;;;24.92;52.56;99768.34;5010546;28;20615;-61
2023/08/12 10:07:13;;;;;;;7.53;2.42;;;;;;;24.85;51.92;99766.09;5009506;28;20042;-61
2023/08/12 10:09:41;;;;;;;11.80;2.45;;;;;;;24.79;51.69;99771.78;5008759;28;20054;-60
2023/08/12 10:12:09;;;;;;;8.70;2.47;;;;;;;24.75;51.85;99763.19;5015490;28;20046;-61
2023/08/12 10:14:37;;;;;;;4.80;1.00;;;;;;;24.58;51.29;99750.25;5024041;28;20451;-64
2023/08/12 10:17:04;;;;;;;8.93;2.15;;;;;;;24.38;51.47;99763.81;5026662;28;20037;-60
2023/08/12 10:19:33;;;;;;;5.72;2.00;;;;;;;24.27;51.68;99758.38;5027859;28;20060;-61
2023/08/12 10:22:03;;;;;;;8.68;2.53;;;;;;;24.20;52.25;99757.09;5026811;28;20084;-62
2023/08/12 10:24:31;;;;;;;9.15;2.22;;;;;;;24.21;51.76;99764.09;5025340;28;20076;-61
2023/08/12 10:26:59;;;;;;;9.27;1.98;;;;;;;24.22;51.93;99753.38;5021250;28;20041;-60
2023/08/12 10:29:25;;;;;;;8.50;1.80;;;;;;;24.06;51.83;99750.88;5020537;28;20045;-60
2023/08/12 10:31:52;;;;;;;5.80;1.85;;;;;;;23.87;52.25;99756.47;5027413;28;20056;-60
2023/08/12 10:34:21;;;;;;;7.60;2.63;;;;;;;23.70;52.12;99752.25;5028671;28;20072;-60
2023/08/12 10:36:56;;;;;;;6.55;2.08;;;;;;;23.51;52.19;99758.69;5028870;28;20044;-60
2023/08/12 10:39:32;;;;;;;7.78;1.92;;;;;;;23.49;53.11;99747.38;5028614;28;20115;-61
2023/08/12 10:41:59;;;;;;;5.47;2.17;;;;;;;23.65;53.79;99746.41;5028543;28;20042;-61
2023/08/12 10:44:40;;;;;;;7.13;2.28;;;;;;;24.00;53.77;99735.38;5029628;28;20133;-60
2023/08/12 10:47:10;;;;;;;5.75;2.05;;;;;;;24.31;52.62;99737.88;5027818;28;20133;-60
2023/08/12 10:52:30;;;;;;;5.18;0.90;;;;;;;24.26;51.25;99727.59;5066538;27;20398;-61
2023/08/12 10:55:25;;;;;;;5.50;1.35;;;;;;;24.05;51.37;99730.66;5063055;28;20063;-61
2023/08/12 10:57:54;;;;;;;3.67;2.60;;;;;;;24.00;51.96;99733.59;5064026;28;20405;-60
2023/08/12 11:00:24;;;;;;;6.03;0.88;;;;;;;23.97;51.94;99725.84;5079525;28;20049;-61
2023/08/12 11:02:53;;;;;;;2.90;0.80;;;;;;;23.97;51.92;99715.28;5086259;28;20036;-61
2023/08/12 11:05:20;;;;;;;3.78;0.75;;;;;;;23.95;51.61;99718.97;5082240;28;20493;-62
2023/08/12 11:07:55;;;;;;;4.25;1.00;;;;;;;23.94;52.23;99715.47;5079749;28;20125;-62
2023/08/12 11:10:25;;;;;;;5.35;1.15;;;;;;;24.00;51.77;99719.50;5075495;28;20041;-62
2023/08/12 11:18:10;;;;;;;4.85;1.98;;;;;;;23.98;51.42;99722.25;5044818;27;20755;-61
2023/08/12 11:20:37;;;;;;;;;;;;;;;23.98;52.40;99721.44;5015525;28;20465;-61
2023/08/12 11:23:05;;;;;;;4.10;2.13;;;;;;;24.28;52.03;99717.75;5020005;28;19996;-61
2023/08/12 11:25:33;;;;;;;5.57;2.00;;;;;;;24.52;52.36;99719.72;5018024;28;20050;-62
2023/08/12 11:28:00;;;;;;;6.45;1.73;;;;;;;24.76;51.57;99716.38;5016043;28;20057;-61
2023/08/12 11:30:28;;;;;;;3.88;1.95;;;;;;;24.94;50.94;99708.16;5020596;28;20053;-61
2023/08/12 11:32:59;;;;;;;3.15;1.88;;;;;;;25.02;50.14;99701.38;5021025;28;20094;-61
2023/08/12 11:35:26;;;;;;;4.60;1.65;;;;;;;25.01;49.72;99714.72;5018512;28;20077;-61
2023/08/12 11:37:57;;;;;;;2.25;1.25;;;;;;;24.97;49.41;99718.53;5018305;28;20038;-62
2023/08/12 11:40:26;;;;;;;5.20;2.10;;;;;;;24.92;49.35;99723.31;5019460;28;20756;-62
2023/08/12 11:42:53;;;;;;;3.60;2.33;;;;;;;25.08;50.73;99721.28;5022973;28;20510;-62
2023/08/12 11:45:22;;;;;;;3.95;1.48;;;;;;;25.32;49.51;99717.88;5017360;28;20096;-61
2023/08/12 11:47:52;;;;;;;6.63;2.85;;;;;;;25.40;49.40;99720.84;5019564;28;20133;-61